createdAt,value
2019-04-25T00:03:03.056Z,385.93
2019-04-25T00:08:11.589Z,453.60
2019-04-25T00:13:19.755Z,322.80
2019-04-25T00:18:27.626Z,370.07
2019-04-25T00:23:37.133Z,251.10
2019-04-25T00:28:44.754Z,384.05
2019-04-25T00:33:53.244Z,451.07
2019-04-25T00:38:59.975Z,388.33
2019-04-25T00:44:06.703Z,392.23
2019-04-25T00:54:22.695Z,355.13
2019-04-25T00:59:35.175Z,287.83
2019-04-25T01:04:41.956Z,586.73
2019-04-25T01:09:48.422Z,436.08
2019-04-25T01:14:54.828Z,356.40
2019-04-25T01:20:00.470Z,430.35
2019-04-25T01:25:06.902Z,188.63
2019-04-25T01:35:29.767Z,279.43
2019-04-25T01:40:43.954Z,248.73
2019-04-25T01:45:51.788Z,386.03
2019-04-25T01:50:58.993Z,127.03
2019-04-25T01:56:07.877Z,330.50
2019-04-25T02:13:27.836Z,330.73
2019-04-25T02:18:34.885Z,256.03
2019-04-25T02:23:44.038Z,306.90
2019-04-25T02:28:50.674Z,347.67
2019-04-25T02:34:00.351Z,405.17
2019-04-25T02:39:09.001Z,260.27
2019-04-25T02:44:15.242Z,145.37
2019-04-25T02:49:39.869Z,217.97
2019-04-25T02:54:48.252Z,202.60
2019-04-25T02:59:56.984Z,170.33
2019-04-25T03:05:09.116Z,155.37
2019-04-25T03:10:15.057Z,86.30
2019-04-25T03:15:24.385Z,52.30
2019-04-25T03:20:32.272Z,33.25
2019-04-25T03:25:39.051Z,17.27
2019-04-25T03:30:45.183Z,8.70
2019-04-25T03:35:53.328Z,7.60
2019-04-25T03:41:00.188Z,532.43
2019-04-25T03:46:08.896Z,235.17
2019-04-25T03:51:17.627Z,355.93
2019-04-25T03:56:24.920Z,317.60
2019-04-25T04:06:38.525Z,243.40
2019-04-25T04:11:44.873Z,145.10
2019-04-25T04:17:13.235Z,408.00
2019-04-25T04:22:21.715Z,622.47
2019-04-25T04:27:29.533Z,544.30
2019-04-25T04:32:36.418Z,390.10
2019-04-25T04:37:45.526Z,355.30
2019-04-25T04:42:53.329Z,290.85
2019-04-25T04:47:59.856Z,225.27
2019-04-25T04:53:09.194Z,148.53
2019-04-25T04:58:19.249Z,138.03
2019-04-25T05:03:26.962Z,93.80
2019-04-25T05:13:41.818Z,33.15
2019-04-25T05:18:48.262Z,17.93
2019-04-25T05:29:03.629Z,5.30
2019-04-25T05:34:10.294Z,4.23
2019-04-25T05:39:19.168Z,4.40
2019-04-25T05:44:27.356Z,3.90
2019-04-25T05:49:36.267Z,15.37
2019-04-25T05:54:44.371Z,70.80
2019-04-25T05:59:53.722Z,266.50
2019-04-25T06:05:00.747Z,246.95
2019-04-25T06:10:15.628Z,553.50
2019-04-25T06:15:25.040Z,379.40
2019-04-25T06:20:36.416Z,304.83
2019-04-25T06:25:44.089Z,219.20
2019-04-25T06:35:57.632Z,235.73
2019-04-25T06:41:04.141Z,127.40
2019-04-25T06:51:55.045Z,316.67
2019-04-25T06:57:01.688Z,333.40
2019-04-25T07:02:11.861Z,483.60
2019-04-25T07:07:17.843Z,421.97
2019-04-25T07:12:26.528Z,515.60
2019-04-25T07:17:31.715Z,424.13
2019-04-25T07:22:37.844Z,688.42
2019-04-25T07:27:45.956Z,561.93
2019-04-25T07:32:54.068Z,543.13
2019-04-25T07:38:00.921Z,527.27
2019-04-25T07:43:07.211Z,530.33
2019-04-25T07:48:16.587Z,584.97
2019-04-25T07:53:26.965Z,543.90
2019-04-25T07:58:45.358Z,531.27
2019-04-25T08:03:43.863Z,605.17
2019-04-25T08:08:50.994Z,479.10
2019-04-25T08:14:20.919Z,517.45
2019-04-25T08:19:28.726Z,368.60
2019-04-25T08:24:35.970Z,323.47
2019-04-25T08:29:42.125Z,334.67
2019-04-25T08:40:35.809Z,339.80
2019-04-25T08:45:44.135Z,454.60
2019-04-25T08:50:53.676Z,362.60
2019-04-25T08:56:04.382Z,285.00
2019-04-25T09:01:29.145Z,504.93
2019-04-25T09:06:37.337Z,347.13
2019-04-25T09:11:46.885Z,299.93
2019-04-25T09:16:53.358Z,330.45
2019-04-25T09:22:00.054Z,267.23
2019-04-25T09:32:14.829Z,398.90
2019-04-25T09:42:26.991Z,447.37
2019-04-25T09:52:40.202Z,366.00
2019-04-25T09:57:59.939Z,404.92
2019-04-25T10:08:13.456Z,308.27
2019-04-25T10:13:20.861Z,298.47
2019-04-25T10:18:27.945Z,252.60
2019-04-25T10:28:43.607Z,147.75
2019-04-25T10:33:50.219Z,127.90
2019-04-25T10:39:07.217Z,106.65
2019-04-25T10:44:05.999Z,74.53
2019-04-25T10:54:20.666Z,53.02
2019-04-25T11:04:34.026Z,13.73
2019-04-25T11:09:45.540Z,4.90
2019-04-25T11:14:53.301Z,3.50
2019-04-25T11:19:59.685Z,2.63
2019-04-25T11:30:13.833Z,2.40
2019-04-25T11:35:20.025Z,1.90
2019-04-25T11:40:31.557Z,1.70
2019-04-25T11:45:37.738Z,1.80
2019-04-25T11:50:48.157Z,1.60
2019-04-25T11:55:51.466Z,3.00
2019-04-25T12:00:58.270Z,3.43
2019-04-25T12:06:04.291Z,3.30
2019-04-25T12:11:10.697Z,2.90
2019-04-25T12:16:16.531Z,5.23
2019-04-25T12:21:23.943Z,122.07
2019-04-25T12:26:30.274Z,17.63
2019-04-25T12:36:44.193Z,5.33
2019-04-25T12:41:50.689Z,19.50
2019-04-25T12:46:58.869Z,77.20
2019-04-25T12:57:14.160Z,67.90
2019-04-25T13:02:23.527Z,21.23
2019-04-25T13:07:29.823Z,38.00
2019-04-25T13:12:36.537Z,53.57
2019-04-25T13:17:43.666Z,69.83
2019-04-25T13:22:49.842Z,84.37
2019-04-25T13:33:44.391Z,159.90
2019-04-25T13:38:50.696Z,74.53
2019-04-25T13:43:57.679Z,39.43
2019-04-25T13:49:04.816Z,27.80
2019-04-25T13:54:13.060Z,20.07
2019-04-25T14:04:26.969Z,32.80
2019-04-25T14:09:34.830Z,18.43
2019-04-25T14:14:54.289Z,10.10
2019-04-25T14:30:46.490Z,12.07
2019-04-25T14:35:53.494Z,13.00
2019-04-25T14:41:00.601Z,17.80
2019-04-25T14:46:06.739Z,14.57
2019-04-25T14:51:14.292Z,16.23
2019-04-25T14:56:28.056Z,8.00
2019-04-25T15:01:44.427Z,10.63
2019-04-25T15:06:42.844Z,8.23
2019-04-25T15:11:49.841Z,6.70
2019-04-25T15:16:56.774Z,11.73
2019-04-25T15:22:04.079Z,16.80
2019-04-25T15:32:18.340Z,18.30
2019-04-25T15:37:26.503Z,23.67
2019-04-25T15:42:34.277Z,18.13
2019-04-25T15:52:47.394Z,9.03
2019-04-25T15:57:53.615Z,10.33
2019-04-25T16:03:00.023Z,6.40
2019-04-25T16:08:06.785Z,4.60
2019-04-25T16:13:13.381Z,4.13
2019-04-25T16:18:19.522Z,3.20
2019-04-25T16:23:25.793Z,4.03
2019-04-25T16:28:32.409Z,3.40
2019-04-25T16:33:38.568Z,3.80
2019-04-25T16:38:44.610Z,2.83
2019-04-25T16:43:53.020Z,3.00
2019-04-25T16:48:59.464Z,3.07
2019-04-25T16:54:06.562Z,2.80
2019-04-25T16:59:14.828Z,2.67
2019-04-25T17:04:22.809Z,2.60
2019-04-25T17:09:30.502Z,2.17
2019-04-25T17:14:55.805Z,2.60
2019-04-25T17:20:15.545Z,2.40
2019-04-25T17:25:25.518Z,2.57
2019-04-25T17:30:33.027Z,2.50
2019-04-25T17:35:54.710Z,2.47
2019-04-25T17:41:01.164Z,2.08
2019-04-25T17:46:10.955Z,2.30
2019-04-25T17:51:16.321Z,2.30
2019-04-25T17:56:23.315Z,2.20
2019-04-25T18:01:29.384Z,2.40
2019-04-25T18:06:35.661Z,1.70
2019-04-25T18:11:43.398Z,2.23
2019-04-25T18:16:51.004Z,1.80
2019-04-25T18:21:58.576Z,1.97
2019-04-25T18:27:22.581Z,1.77
2019-04-25T18:32:30.025Z,2.10
2019-04-25T18:43:03.276Z,1.80
2019-04-25T18:48:09.288Z,1.80
2019-04-25T18:53:32.382Z,1.92
2019-04-25T18:58:38.634Z,2.00
2019-04-25T19:03:47.988Z,1.80
2019-04-25T19:14:00.337Z,2.00
2019-04-25T19:19:06.314Z,2.00
2019-04-25T19:24:12.971Z,1.97
2019-04-25T19:29:19.023Z,2.00
2019-04-25T19:34:24.841Z,2.10
2019-04-25T19:39:32.459Z,1.87
2019-04-25T19:44:38.633Z,1.70
2019-04-25T19:49:44.999Z,2.00
2019-04-25T19:54:51.913Z,2.13
2019-04-25T19:59:58.085Z,1.90
2019-04-25T20:05:08.553Z,1.87
2019-04-25T20:10:17.294Z,2.10
2019-04-25T20:15:38.371Z,2.20
2019-04-25T20:20:45.042Z,2.30
2019-04-25T20:25:52.824Z,2.13
